Treorchy, United Kingdom
Current Conditions -  °F | °C
As of 8:50 AM on Thursday 27 Nov 2014 (Local Time) from EGDX Reporting Station
Moderate Fog Moderate Fog  
Wind Chill: 38°   Ceiling: Unl
Heat Index: 41°   Visibility: 0.03mi
Dew Point: 41°   Wind: 5mph
Humidity: 100%   Direction: 80°E
Pressure: 29.59"   Gusts: NA
Location:  51.67°N, 3.53°W
Report Text: EGDX 270850Z 08004KT 0050 FG VV/// 05/05 Q1002 RED
Loading
Personal Weather Stations






























Interactive Weather Map New forecast layout! Learn more

10-Day Weather Forecast

Advertisements
Track Severe Weather on mobile